createdAt,value
2017-08-15T00:02:10.844Z,88.80
2017-08-15T00:04:38.428Z,89.00
2017-08-15T00:07:05.959Z,88.90
2017-08-15T00:09:33.507Z,89.10
2017-08-15T00:12:01.116Z,88.30
2017-08-15T00:14:32.630Z,87.90
2017-08-15T00:17:00.128Z,87.90
2017-08-15T00:19:27.640Z,85.80
2017-08-15T00:21:55.297Z,86.90
2017-08-15T00:24:22.824Z,87.30
2017-08-15T00:26:51.116Z,87.90
2017-08-15T00:29:19.491Z,87.90
2017-08-15T00:31:47.852Z,86.80
2017-08-15T00:34:15.449Z,87.10
2017-08-15T00:36:43.082Z,88.00
2017-08-15T00:39:11.658Z,87.70
2017-08-15T00:41:39.236Z,88.50
2017-08-15T00:44:06.740Z,89.00
2017-08-15T00:46:34.257Z,86.70
2017-08-15T00:49:02.550Z,87.10
2017-08-15T00:51:30.093Z,87.00
2017-08-15T00:53:59.391Z,88.40
2017-08-15T00:56:27.756Z,87.60
2017-08-15T00:58:56.060Z,89.30
2017-08-15T01:01:23.555Z,88.60
2017-08-15T01:03:51.936Z,89.00
2017-08-15T01:06:19.432Z,89.00
2017-08-15T01:08:47.434Z,89.20
2017-08-15T01:11:14.951Z,89.40
2017-08-15T01:13:42.627Z,90.00
2017-08-15T01:16:10.155Z,90.00
2017-08-15T01:18:40.974Z,89.90
2017-08-15T01:21:08.615Z,89.70
2017-08-15T01:23:36.110Z,90.00
2017-08-15T01:26:03.620Z,89.80
2017-08-15T01:28:31.712Z,90.10
2017-08-15T01:31:04.715Z,90.20
2017-08-15T01:33:32.753Z,90.20
2017-08-15T01:36:00.455Z,90.30
2017-08-15T01:38:27.996Z,90.50
2017-08-15T01:40:55.491Z,90.60
2017-08-15T01:43:23.067Z,90.60
2017-08-15T01:45:50.581Z,90.70
2017-08-15T01:48:18.104Z,90.80
2017-08-15T01:50:45.695Z,91.20
2017-08-15T01:53:13.226Z,90.80
2017-08-15T01:55:40.782Z,91.00
2017-08-15T01:58:08.296Z,91.00
2017-08-15T02:00:35.804Z,91.10
2017-08-15T02:03:08.743Z,91.30
2017-08-15T02:05:36.324Z,91.00
2017-08-15T02:08:03.843Z,91.10
2017-08-15T02:10:31.360Z,91.20
2017-08-15T02:12:58.888Z,91.20
2017-08-15T02:15:26.450Z,91.20
2017-08-15T02:17:53.968Z,91.20
2017-08-15T02:20:25.015Z,91.10
2017-08-15T02:22:52.980Z,91.20
2017-08-15T02:25:20.479Z,91.10
2017-08-15T02:27:48.043Z,91.30
2017-08-15T02:30:15.599Z,91.50
2017-08-15T02:32:43.091Z,91.60
2017-08-15T02:35:11.336Z,91.60
2017-08-15T02:37:38.894Z,91.60
2017-08-15T02:40:06.420Z,91.30
2017-08-15T02:42:34.031Z,91.60
2017-08-15T02:45:02.255Z,91.50
2017-08-15T02:47:30.444Z,91.70
2017-08-15T02:49:59.032Z,91.70
2017-08-15T02:52:26.586Z,91.60
2017-08-15T02:54:54.108Z,91.80
2017-08-15T02:57:21.689Z,91.70
2017-08-15T02:59:49.204Z,91.70
2017-08-15T03:02:21.271Z,91.40
2017-08-15T03:04:48.827Z,91.50
2017-08-15T03:07:17.118Z,91.80
2017-08-15T03:09:44.676Z,91.90
2017-08-15T03:12:12.227Z,91.80
2017-08-15T03:14:39.781Z,91.90
2017-08-15T03:17:07.333Z,91.90
2017-08-15T03:19:34.904Z,92.20
2017-08-15T03:22:02.461Z,92.40
2017-08-15T03:24:29.989Z,92.60
2017-08-15T03:26:58.299Z,92.60
2017-08-15T03:29:25.836Z,92.40
2017-08-15T03:31:54.276Z,92.60
2017-08-15T03:34:21.824Z,92.60
2017-08-15T03:36:49.329Z,92.50
2017-08-15T03:39:16.847Z,92.30
2017-08-15T03:41:44.411Z,92.40
2017-08-15T03:44:11.933Z,92.70
2017-08-15T03:46:39.455Z,92.70
2017-08-15T03:49:07.019Z,92.70
2017-08-15T03:51:34.572Z,92.60
2017-08-15T03:54:02.128Z,92.60
2017-08-15T03:56:29.678Z,92.50
2017-08-15T03:58:58.114Z,92.40
2017-08-15T04:01:25.640Z,92.70
2017-08-15T04:03:53.200Z,92.60
2017-08-15T04:06:20.747Z,92.70
2017-08-15T04:08:49.060Z,92.50
2017-08-15T04:11:16.575Z,92.50
2017-08-15T04:13:44.296Z,92.60
2017-08-15T04:16:11.838Z,93.00
2017-08-15T04:18:42.643Z,92.70
2017-08-15T04:21:11.429Z,92.90
2017-08-15T04:23:39.003Z,92.90
2017-08-15T04:26:06.515Z,92.90
2017-08-15T04:28:34.037Z,92.90
2017-08-15T04:31:01.576Z,92.70
2017-08-15T04:33:29.157Z,92.80
2017-08-15T04:35:56.715Z,92.40
2017-08-15T04:38:24.248Z,92.30
2017-08-15T04:40:51.969Z,92.60
2017-08-15T04:43:19.543Z,92.60
2017-08-15T04:45:47.055Z,92.50
2017-08-15T04:48:14.604Z,92.60
2017-08-15T04:50:42.929Z,92.70
2017-08-15T04:53:10.575Z,92.70
2017-08-15T04:55:38.191Z,92.70
2017-08-15T04:58:05.720Z,92.70
2017-08-15T05:00:33.232Z,92.60
2017-08-15T05:03:00.831Z,92.50
2017-08-15T05:05:28.413Z,92.30
2017-08-15T05:07:55.924Z,92.10
2017-08-15T05:10:23.472Z,91.80
2017-08-15T05:12:50.996Z,91.90
2017-08-15T05:15:18.532Z,91.20
2017-08-15T05:17:46.069Z,90.50
2017-08-15T05:20:13.617Z,91.10
2017-08-15T05:22:45.704Z,90.20
2017-08-15T05:25:13.254Z,90.20
2017-08-15T05:27:40.755Z,89.80
2017-08-15T05:30:08.303Z,89.70
2017-08-15T05:32:35.883Z,89.00
2017-08-15T05:35:06.692Z,88.80
2017-08-15T05:37:34.236Z,88.20
2017-08-15T05:40:01.769Z,87.70
2017-08-15T05:42:29.370Z,87.30
2017-08-15T05:44:57.439Z,86.10
2017-08-15T05:47:25.019Z,88.00
2017-08-15T05:49:55.648Z,86.80
2017-08-15T05:52:27.199Z,86.70
2017-08-15T05:54:55.615Z,86.80
2017-08-15T05:57:23.299Z,85.30
2017-08-15T05:59:50.800Z,85.10
2017-08-15T06:02:18.303Z,84.90
2017-08-15T06:04:45.815Z,83.70
2017-08-15T06:07:13.323Z,83.70
2017-08-15T06:09:40.827Z,82.80
2017-08-15T06:12:08.993Z,83.50
2017-08-15T06:14:36.568Z,81.60
2017-08-15T06:17:04.067Z,83.30
2017-08-15T06:19:31.728Z,84.10
2017-08-15T06:22:02.532Z,82.20
2017-08-15T06:24:30.036Z,81.10
2017-08-15T06:26:57.550Z,80.40
2017-08-15T06:29:25.047Z,80.60
2017-08-15T06:31:52.583Z,79.20
2017-08-15T06:34:20.126Z,80.10
2017-08-15T06:36:47.632Z,79.60
2017-08-15T06:39:20.255Z,79.80
2017-08-15T06:41:47.775Z,78.00
2017-08-15T06:44:15.976Z,77.10
2017-08-15T06:46:43.547Z,76.80
2017-08-15T06:49:11.083Z,77.90
2017-08-15T06:51:39.351Z,76.80
2017-08-15T06:54:10.903Z,76.70
2017-08-15T06:56:38.402Z,74.60
2017-08-15T06:59:05.951Z,76.10
2017-08-15T07:01:33.451Z,75.40
2017-08-15T07:04:00.999Z,73.60
2017-08-15T07:06:28.499Z,74.50
2017-08-15T07:08:56.087Z,75.50
2017-08-15T07:11:23.595Z,72.90
2017-08-15T07:13:51.099Z,73.20
2017-08-15T07:16:19.311Z,72.80
2017-08-15T07:18:46.811Z,72.20
2017-08-15T07:21:14.322Z,71.70
2017-08-15T07:23:41.855Z,71.30
2017-08-15T07:26:10.265Z,70.10
2017-08-15T07:28:37.797Z,69.90
2017-08-15T07:31:06.087Z,70.60
2017-08-15T07:33:33.587Z,70.50
2017-08-15T07:36:01.136Z,69.80
2017-08-15T07:38:32.379Z,69.20
2017-08-15T07:40:59.930Z,68.50
2017-08-15T07:43:27.948Z,67.10
2017-08-15T07:45:55.457Z,66.60
2017-08-15T07:48:22.959Z,64.90
2017-08-15T07:50:51.431Z,61.30
2017-08-15T07:53:20.597Z,56.00
2017-08-15T07:55:48.119Z,53.40
2017-08-15T07:58:16.399Z,48.70
2017-08-15T08:00:43.912Z,48.60
2017-08-15T08:03:11.500Z,47.80
2017-08-15T08:05:39.068Z,49.10
2017-08-15T08:08:06.607Z,49.10
2017-08-15T08:10:38.062Z,46.90
2017-08-15T08:13:05.600Z,44.70
2017-08-15T08:15:33.107Z,43.70
2017-08-15T08:18:00.660Z,45.20
2017-08-15T08:20:28.192Z,44.40
2017-08-15T08:22:59.948Z,45.50
2017-08-15T08:25:28.137Z,43.70
2017-08-15T08:41:20.957Z,41.80
2017-08-15T08:43:48.499Z,41.70
2017-08-15T08:46:16.284Z,42.30
2017-08-15T08:48:43.879Z,40.00
2017-08-15T08:51:11.430Z,38.60
2017-08-15T08:53:38.931Z,39.80
2017-08-15T08:56:07.303Z,41.90
2017-08-15T08:58:35.615Z,39.80
2017-08-15T09:01:03.122Z,39.70
2017-08-15T09:03:30.684Z,38.10
2017-08-15T09:05:58.190Z,39.50
2017-08-15T09:08:25.705Z,39.30
2017-08-15T09:10:53.213Z,38.30
2017-08-15T09:13:20.755Z,38.80
2017-08-15T09:15:48.288Z,40.50
2017-08-15T09:18:15.999Z,41.30
2017-08-15T09:20:43.572Z,39.90
2017-08-15T09:23:11.188Z,37.90
2017-08-15T09:25:39.504Z,40.20
2017-08-15T09:28:07.028Z,40.20
2017-08-15T09:30:35.311Z,46.50
2017-08-15T09:33:02.816Z,46.40
2017-08-15T09:35:30.564Z,46.10
2017-08-15T09:37:58.121Z,47.80
2017-08-15T09:40:25.771Z,48.90
2017-08-15T09:42:53.284Z,48.80
2017-08-15T09:45:20.876Z,48.60
2017-08-15T09:47:48.390Z,47.30
2017-08-15T09:50:15.889Z,47.70
2017-08-15T09:52:43.492Z,45.60
2017-08-15T09:55:10.991Z,42.50
2017-08-15T09:57:38.492Z,41.00
2017-08-15T10:00:06.061Z,41.20
2017-08-15T10:02:34.566Z,38.70
2017-08-15T10:05:02.077Z,38.80
2017-08-15T10:07:29.619Z,35.20
2017-08-15T10:09:57.163Z,36.30
2017-08-15T10:12:25.920Z,37.70
2017-08-15T10:14:53.528Z,37.20
2017-08-15T10:17:21.115Z,38.10
2017-08-15T10:19:48.650Z,39.60
2017-08-15T10:22:16.166Z,37.70
2017-08-15T10:24:43.676Z,37.70
2017-08-15T10:27:11.200Z,37.80
2017-08-15T10:29:38.732Z,39.70
2017-08-15T10:32:06.291Z,40.30
2017-08-15T10:34:33.801Z,41.60
2017-08-15T10:37:01.316Z,41.20
2017-08-15T10:39:28.823Z,42.10
2017-08-15T10:41:56.348Z,38.30
2017-08-15T10:44:23.881Z,38.80
2017-08-15T10:46:51.428Z,37.10
2017-08-15T10:49:18.997Z,35.80
2017-08-15T10:51:46.538Z,33.80
2017-08-15T10:54:14.076Z,34.40
2017-08-15T10:56:41.595Z,34.30
2017-08-15T10:59:09.089Z,32.20
2017-08-15T11:01:36.620Z,34.00
2017-08-15T11:04:04.165Z,35.00
2017-08-15T11:06:31.691Z,34.30
2017-08-15T11:08:59.201Z,35.30
2017-08-15T11:11:30.676Z,34.00
2017-08-15T11:13:58.180Z,36.10
2017-08-15T11:16:25.703Z,34.70
2017-08-15T11:18:53.223Z,35.10
2017-08-15T11:21:21.656Z,32.60
2017-08-15T11:23:49.242Z,33.30
2017-08-15T11:26:16.760Z,33.80
2017-08-15T11:28:44.264Z,30.80
2017-08-15T11:31:11.775Z,31.30
2017-08-15T11:33:39.287Z,31.30
2017-08-15T11:36:06.787Z,30.40
2017-08-15T11:38:34.308Z,31.60
2017-08-15T11:41:05.675Z,33.20
2017-08-15T11:43:33.698Z,31.60
2017-08-15T11:46:01.216Z,30.50
2017-08-15T11:48:28.776Z,30.40
2017-08-15T11:50:56.274Z,30.80
2017-08-15T11:53:23.767Z,29.10
2017-08-15T11:55:51.296Z,30.10
2017-08-15T11:58:18.806Z,30.20
2017-08-15T12:00:46.344Z,31.30
2017-08-15T12:03:13.873Z,31.60
2017-08-15T12:05:41.431Z,31.50
2017-08-15T12:08:09.005Z,34.00
2017-08-15T12:10:37.305Z,32.60
2017-08-15T12:13:08.568Z,32.60
2017-08-15T12:15:36.071Z,32.30
2017-08-15T12:18:03.590Z,31.40
2017-08-15T12:20:31.146Z,31.30
2017-08-15T12:22:58.716Z,30.70
2017-08-15T12:25:26.332Z,31.00
2017-08-15T12:27:53.839Z,30.50
2017-08-15T12:30:22.652Z,31.30
2017-08-15T12:32:50.151Z,30.60
2017-08-15T12:35:17.669Z,32.00
2017-08-15T12:40:35.592Z,32.30
2017-08-15T12:43:03.101Z,30.60
2017-08-15T12:45:30.599Z,30.70
2017-08-15T12:47:58.123Z,32.70
2017-08-15T12:50:25.712Z,34.40
2017-08-15T12:52:53.295Z,32.00
2017-08-15T12:55:20.800Z,33.90
2017-08-15T12:57:48.300Z,34.60
2017-08-15T13:00:15.809Z,35.50
2017-08-15T13:02:43.306Z,35.30
2017-08-15T13:05:10.932Z,36.60
2017-08-15T13:07:38.436Z,36.70
2017-08-15T13:10:05.952Z,36.20
2017-08-15T13:12:33.512Z,37.20
2017-08-15T13:15:01.011Z,37.90
2017-08-15T13:17:28.532Z,37.30
2017-08-15T13:19:56.030Z,38.10
2017-08-15T13:22:23.621Z,38.80
2017-08-15T13:24:51.200Z,38.30
2017-08-15T13:27:18.715Z,39.30
2017-08-15T13:29:51.011Z,38.90
2017-08-15T13:32:18.517Z,39.30
2017-08-15T13:34:46.841Z,39.40
2017-08-15T13:37:14.366Z,39.10
2017-08-15T13:39:42.668Z,39.90
2017-08-15T13:42:10.275Z,39.80
2017-08-15T13:44:38.576Z,42.80
2017-08-15T13:47:07.117Z,41.30
2017-08-15T13:49:34.652Z,41.20
2017-08-15T13:52:02.184Z,39.10
2017-08-15T13:54:30.859Z,40.90
2017-08-15T13:56:59.146Z,42.40
2017-08-15T13:59:26.656Z,42.50
2017-08-15T14:01:54.193Z,41.20
2017-08-15T14:04:21.731Z,41.70
2017-08-15T14:06:49.234Z,41.60
2017-08-15T14:09:17.728Z,41.80
2017-08-15T14:11:45.239Z,41.70
2017-08-15T14:14:12.760Z,41.60
2017-08-15T14:16:40.324Z,41.80
2017-08-15T14:19:07.868Z,42.60
2017-08-15T14:21:35.593Z,41.50
2017-08-15T14:24:03.102Z,42.20
2017-08-15T14:26:30.607Z,41.60
2017-08-15T14:28:58.143Z,42.10
2017-08-15T14:31:26.469Z,42.20
2017-08-15T14:33:53.972Z,42.00
2017-08-15T14:36:21.532Z,42.90
2017-08-15T14:38:49.027Z,41.70
2017-08-15T14:41:16.575Z,41.20
2017-08-15T14:43:47.948Z,40.90
2017-08-15T14:46:15.525Z,40.80
2017-08-15T14:48:43.047Z,38.80
2017-08-15T14:51:10.677Z,40.30
2017-08-15T14:53:38.196Z,38.90
2017-08-15T14:56:05.708Z,39.40
2017-08-15T14:58:33.536Z,39.50
2017-08-15T15:01:01.053Z,39.10
2017-08-15T15:03:28.684Z,39.50
2017-08-15T15:05:56.288Z,40.60
2017-08-15T15:08:23.842Z,39.40
2017-08-15T15:10:51.347Z,40.10
2017-08-15T15:13:18.858Z,40.70
2017-08-15T15:15:46.666Z,41.30
2017-08-15T15:18:14.223Z,42.00
2017-08-15T15:20:42.371Z,43.10
2017-08-15T15:23:10.503Z,42.70
2017-08-15T15:25:38.040Z,42.00
2017-08-15T15:28:05.556Z,41.90
2017-08-15T15:30:33.118Z,41.60
2017-08-15T15:33:00.620Z,42.30
2017-08-15T15:35:28.263Z,42.50
2017-08-15T15:37:55.843Z,42.40
2017-08-15T15:40:24.337Z,42.70
2017-08-15T15:42:51.853Z,43.70
2017-08-15T15:45:19.388Z,44.10
2017-08-15T15:47:47.661Z,46.00
2017-08-15T15:50:15.183Z,45.90
2017-08-15T15:52:42.699Z,46.60
2017-08-15T15:55:10.996Z,48.10
2017-08-15T15:57:38.504Z,48.10
2017-08-15T16:00:06.838Z,50.10
2017-08-15T16:02:34.350Z,49.40
2017-08-15T16:05:01.928Z,49.50
2017-08-15T16:07:29.524Z,49.80
2017-08-15T16:09:57.080Z,50.90
2017-08-15T16:12:25.280Z,51.50
2017-08-15T16:14:52.836Z,51.80
2017-08-15T16:17:20.387Z,52.50
2017-08-15T16:19:47.900Z,52.70
2017-08-15T16:22:15.416Z,54.50
2017-08-15T16:24:42.911Z,54.50
2017-08-15T16:27:10.500Z,53.40
2017-08-15T16:29:38.157Z,53.30
2017-08-15T16:32:06.508Z,53.60
2017-08-15T16:34:34.019Z,54.10
2017-08-15T16:37:01.614Z,54.80
2017-08-15T16:39:29.143Z,55.70
2017-08-15T16:41:56.699Z,56.80
2017-08-15T16:44:24.222Z,57.60
2017-08-15T16:46:52.557Z,58.60
2017-08-15T16:49:20.092Z,58.50
2017-08-15T16:51:47.625Z,58.30
2017-08-15T16:54:15.187Z,57.90
2017-08-15T16:56:43.593Z,58.50
2017-08-15T16:59:11.128Z,58.30
2017-08-15T17:01:42.823Z,59.10
2017-08-15T17:04:10.619Z,59.20
2017-08-15T17:06:38.144Z,58.80
2017-08-15T17:09:05.703Z,59.40
2017-08-15T17:11:33.231Z,60.30
2017-08-15T17:14:00.757Z,60.10
2017-08-15T17:16:28.284Z,60.10
2017-08-15T17:18:55.799Z,60.20
2017-08-15T17:21:23.318Z,60.50
2017-08-15T17:23:50.849Z,60.50
2017-08-15T17:26:18.380Z,59.60
2017-08-15T17:28:46.679Z,59.80
2017-08-15T17:31:14.184Z,59.80
2017-08-15T17:33:41.686Z,58.90
2017-08-15T17:36:09.219Z,58.10
2017-08-15T17:38:36.758Z,58.50
2017-08-15T17:41:04.272Z,59.50
2017-08-15T17:43:31.772Z,59.20
2017-08-15T17:45:59.323Z,61.00
2017-08-15T17:48:27.905Z,61.20
2017-08-15T17:50:55.404Z,61.00
2017-08-15T17:53:22.925Z,61.90
2017-08-15T17:55:50.434Z,62.30
2017-08-15T17:58:17.948Z,64.10
2017-08-15T18:00:45.460Z,66.10
2017-08-15T18:03:13.006Z,64.70
2017-08-15T18:05:40.552Z,64.20
2017-08-15T18:08:08.073Z,63.90
2017-08-15T18:10:35.599Z,65.20
2017-08-15T18:13:03.132Z,66.60
2017-08-15T18:15:30.652Z,66.10
2017-08-15T18:17:58.160Z,66.90
2017-08-15T18:20:29.468Z,66.30
2017-08-15T18:22:56.983Z,67.20
2017-08-15T18:25:25.307Z,69.50
2017-08-15T18:27:52.826Z,69.40
2017-08-15T18:30:21.092Z,71.20
2017-08-15T18:32:48.607Z,70.90
2017-08-15T18:35:16.138Z,72.00
2017-08-15T18:37:43.639Z,73.60
2017-08-15T18:40:11.188Z,72.00
2017-08-15T18:42:38.688Z,72.40
2017-08-15T18:45:06.233Z,72.70
2017-08-15T18:47:37.133Z,73.90
2017-08-15T18:50:04.648Z,74.00
2017-08-15T18:52:32.172Z,75.20
2017-08-15T18:54:59.688Z,74.30
2017-08-15T18:57:27.230Z,73.60
2017-08-15T18:59:55.953Z,73.20
2017-08-15T19:02:23.475Z,73.20
2017-08-15T19:04:50.985Z,75.10
2017-08-15T19:07:18.539Z,77.10
2017-08-15T19:09:46.039Z,76.60
2017-08-15T19:12:13.708Z,76.90
2017-08-15T19:14:41.300Z,77.60
2017-08-15T19:17:08.848Z,76.70
2017-08-15T19:19:36.360Z,76.60
2017-08-15T19:22:03.880Z,74.20
2017-08-15T19:24:31.400Z,75.50
2017-08-15T19:26:58.907Z,75.70
2017-08-15T19:29:26.428Z,75.50
2017-08-15T19:31:53.945Z,74.30
2017-08-15T19:34:21.513Z,73.60
2017-08-15T19:36:49.031Z,72.60
2017-08-15T19:39:17.337Z,71.80
2017-08-15T19:41:44.889Z,71.70
2017-08-15T19:44:13.129Z,80.60
2017-08-15T19:46:40.689Z,90.60
2017-08-15T19:49:08.975Z,89.50
2017-08-15T19:51:36.527Z,89.30
2017-08-15T19:54:04.055Z,91.20
2017-08-15T19:56:31.587Z,92.20
2017-08-15T19:59:00.023Z,92.90
2017-08-15T20:01:27.577Z,92.70
2017-08-15T20:03:55.080Z,93.50
2017-08-15T20:06:22.605Z,93.60
2017-08-15T20:08:50.476Z,94.20
2017-08-15T20:11:17.971Z,94.70
2017-08-15T20:13:45.490Z,95.10
2017-08-15T20:16:13.835Z,96.00
2017-08-15T20:18:41.333Z,96.00
2017-08-15T20:21:08.852Z,95.90
2017-08-15T20:23:39.614Z,96.00
2017-08-15T20:26:07.120Z,96.00
2017-08-15T20:28:34.663Z,96.30
2017-08-15T20:31:02.258Z,96.30
2017-08-15T20:33:29.758Z,96.00
2017-08-15T20:35:57.270Z,96.10
2017-08-15T20:38:24.800Z,96.40
2017-08-15T20:40:52.573Z,96.30
2017-08-15T20:43:20.140Z,96.20
2017-08-15T20:45:47.853Z,96.40
2017-08-15T20:48:15.415Z,96.60
2017-08-15T20:50:46.970Z,96.80
2017-08-15T20:53:14.570Z,96.90
2017-08-15T20:55:42.137Z,96.70
2017-08-15T20:58:10.087Z,96.90
2017-08-15T21:00:37.609Z,96.70
2017-08-15T21:03:05.110Z,96.50
2017-08-15T21:05:33.405Z,96.80
2017-08-15T21:08:00.931Z,96.70
2017-08-15T21:10:28.577Z,97.30
2017-08-15T21:12:56.531Z,97.20
2017-08-15T21:15:24.036Z,97.10
2017-08-15T21:17:51.591Z,97.60
2017-08-15T21:20:19.105Z,96.90
2017-08-15T21:22:46.641Z,96.80
2017-08-15T21:25:14.196Z,97.30
2017-08-15T21:27:41.701Z,97.40
2017-08-15T21:30:09.201Z,97.10
2017-08-15T21:32:36.743Z,96.40
2017-08-15T21:35:05.195Z,96.80
2017-08-15T21:37:32.710Z,96.70
2017-08-15T21:40:00.279Z,96.60
2017-08-15T21:42:27.760Z,96.90
2017-08-15T21:44:55.268Z,96.60
2017-08-15T21:47:23.209Z,96.60
2017-08-15T21:49:50.684Z,96.50
2017-08-15T21:52:19.057Z,96.50
2017-08-15T21:54:46.555Z,96.80
2017-08-15T21:57:14.094Z,96.00
2017-08-15T21:59:41.627Z,96.00
2017-08-15T22:02:14.677Z,95.80
2017-08-15T22:04:42.185Z,96.30
2017-08-15T22:07:10.493Z,96.70
2017-08-15T22:09:39.373Z,96.50
2017-08-15T22:12:07.346Z,96.30
2017-08-15T22:14:34.863Z,96.60
2017-08-15T22:17:02.376Z,96.80
2017-08-15T22:19:29.951Z,96.60
2017-08-15T22:22:04.927Z,96.50
2017-08-15T22:24:32.432Z,96.60
2017-08-15T22:27:00.760Z,96.70
2017-08-15T22:29:28.279Z,96.60
2017-08-15T22:31:55.788Z,96.20
2017-08-15T22:34:23.341Z,96.80
2017-08-15T22:36:50.854Z,97.10
2017-08-15T22:39:21.738Z,96.40
2017-08-15T22:41:49.253Z,96.90
2017-08-15T22:44:17.526Z,96.70
2017-08-15T22:46:45.052Z,96.70
2017-08-15T22:49:13.485Z,96.70
2017-08-15T22:51:40.996Z,96.70
2017-08-15T22:54:10.749Z,96.90
2017-08-15T22:56:40.075Z,97.00
2017-08-15T22:59:08.019Z,96.30
2017-08-15T23:01:35.540Z,96.80
2017-08-15T23:04:03.035Z,96.70
2017-08-15T23:06:30.599Z,96.80
2017-08-15T23:08:58.107Z,96.60
2017-08-15T23:11:25.619Z,96.40
2017-08-15T23:13:53.186Z,96.90
2017-08-15T23:16:22.450Z,96.80
2017-08-15T23:18:50.000Z,96.90
2017-08-15T23:21:17.555Z,97.00
2017-08-15T23:23:45.096Z,97.00
2017-08-15T23:26:12.604Z,97.30
2017-08-15T23:28:40.145Z,97.10
2017-08-15T23:31:07.712Z,97.30
2017-08-15T23:33:35.288Z,97.10
2017-08-15T23:36:03.195Z,97.10
2017-08-15T23:38:35.147Z,97.10
2017-08-15T23:41:02.696Z,97.00
2017-08-15T23:43:30.200Z,96.80
2017-08-15T23:45:57.709Z,96.60
2017-08-15T23:48:25.219Z,96.90
2017-08-15T23:50:52.806Z,96.80
2017-08-15T23:53:20.404Z,96.70
2017-08-15T23:55:47.912Z,97.00
2017-08-15T23:58:15.452Z,96.60
